This is the latest recevied weather packets stored in our database for station/object EA1JAV-11. If no packets are shown the sender has not sent any weather packets the latest 1 day(s).
| Time | Temp. | Humidity | Pressure | Rain* | Wind** | Luminosity | Snow |
|---|---|---|---|---|---|---|---|
| 1778096310 | 17.78° C | 44% | 988.8 hPa | - | - | - | - |
| 1778094510 | 18.33° C | 43% | 988.8 hPa | - | - | - | - |
| 1778092710 | 19.44° C | 43% | 988.9 hPa | - | - | - | - |
| 1778090910 | 20° C | 42% | 989 hPa | - | - | - | - |
| 1778089110 | 20° C | 41% | 989.1 hPa | - | - | - | - |
| 1778067509 | 17.22° C | 48% | 991.4 hPa | - | - | - | - |
| 1778065709 | 17.22° C | 48% | 991.6 hPa | - | - | - | - |
| 1778063909 | 17.22° C | 48% | 991.6 hPa | - | - | - | - |
| 1778051308 | 14.44° C | 51% | 991.6 hPa | - | - | - | - |
| 1778047708 | 13.89° C | 51% | 991.3 hPa | - | - | - | - |
| 1778045908 | 13.89° C | 51% | 991.2 hPa | - | - | - | - |
| 1778044108 | 13.89° C | 51% | 991.1 hPa | - | - | - | - |
| 1778042308 | 13.89° C | 51% | 991.2 hPa | - | - | - | - |
| 1778040508 | 14.44° C | 51% | 991.3 hPa | - | - | - | - |
| 1778038708 | 14.44° C | 50% | 991.4 hPa | - | - | - | - |
| 1778036908 | 14.44° C | 50% | 991.6 hPa | - | - | - | - |
| 1778035108 | 14.44° C | 50% | 991.6 hPa | - | - | - | - |
| 1778033307 | 14.44° C | 50% | 991.7 hPa | - | - | - | - |
| 1778031508 | 14.44° C | 50% | 991.9 hPa | - | - | - | - |
| 1778029707 | 15° C | 50% | 992.3 hPa | - | - | - | - |
* Rain since midnight (hover to see other rain measurements)
** Current wind speed in m/s (hover to see current wind gust speed)